Time;durP1;ratioP1;P1;durP2;ratioP2;P2;SDS_P1;SDS_P2;PMS_P1;PMS_P2;Temp;Humidity;BMP_temperature;BMP_pressure;BME280_temperature;BME280_humidity;BME280_pressure;Samples;Min_cycle;Max_cycle;Signal;HPM_P1;HPM_P2
2021/07/04 00:02:22;;;;;;;;;7.00;5.75;;;;;23.94;49.79;100711.41;5057423;28;45373;-60
2021/07/04 00:04:47;;;;;;;;;6.50;5.50;;;;;23.92;49.34;100700.06;5057130;28;46081;-60
2021/07/04 00:07:14;;;;;;;;;7.50;5.75;;;;;23.94;49.39;100708.75;5057425;28;45321;-60
2021/07/04 00:09:40;;;;;;;;;5.00;5.00;;;;;23.93;49.34;100707.91;5057106;28;45297;-59
2021/07/04 00:12:06;;;;;;;;;5.25;5.25;;;;;23.93;49.42;100696.47;5057337;28;45298;-59
2021/07/04 00:14:32;;;;;;;;;5.75;5.75;;;;;23.94;49.41;100698.16;5056886;28;46085;-60
2021/07/04 00:16:58;;;;;;;;;3.75;3.75;;;;;23.92;49.68;100692.97;5057023;28;45392;-60
2021/07/04 00:19:23;;;;;;;;;6.75;6.75;;;;;23.94;49.50;100706.13;5056849;28;45388;-60
2021/07/04 00:21:49;;;;;;;;;5.00;5.00;;;;;23.94;49.30;100709.59;5057313;28;45334;-59
2021/07/04 00:24:14;;;;;;;;;4.50;4.50;;;;;23.92;49.30;100697.44;5056975;28;46263;-60
2021/07/04 00:26:40;;;;;;;;;5.00;5.00;;;;;23.93;49.18;100697.31;5056837;28;45418;-60
2021/07/04 00:29:05;;;;;;;;;7.00;4.75;;;;;23.94;49.72;100692.88;5056944;28;45185;-59
2021/07/04 00:31:31;;;;;;;;;6.75;5.00;;;;;23.93;49.77;100691.19;5057234;28;45288;-60
2021/07/04 00:33:56;;;;;;;;;5.25;5.25;;;;;23.94;49.47;100684.94;5055343;28;47890;-60
2021/07/04 00:36:22;;;;;;;;;5.00;5.00;;;;;23.94;49.70;100679.63;5055510;28;45434;-62
2021/07/04 00:38:47;;;;;;;;;5.25;5.25;;;;;23.93;49.56;100670.84;5056731;28;45481;-59
2021/07/04 00:41:13;;;;;;;;;5.00;5.00;;;;;23.92;49.71;100666.50;5057023;28;45372;-59
2021/07/04 00:43:38;;;;;;;;;5.50;5.00;;;;;23.92;49.64;100670.97;5056559;28;46317;-59
2021/07/04 00:46:04;;;;;;;;;5.50;5.50;;;;;23.93;49.44;100670.84;5055649;28;45410;-60
2021/07/04 00:48:29;;;;;;;;;7.00;6.00;;;;;23.92;49.52;100671.78;5056652;28;45364;-60
2021/07/04 00:50:54;;;;;;;;;5.50;5.50;;;;;23.92;49.92;100666.50;5056753;28;45424;-59
2021/07/04 00:53:21;;;;;;;;;7.50;7.50;;;;;23.93;49.57;100670.00;5056291;28;46173;-60
2021/07/04 00:55:46;;;;;;;;;5.00;5.00;;;;;23.92;49.92;100673.59;5056677;28;45457;-60
2021/07/04 00:58:12;;;;;;;;;5.50;4.50;;;;;23.93;49.71;100670.84;5056275;28;45216;-59
2021/07/04 01:00:40;;;;;;;;;4.25;4.25;;;;;23.92;49.98;100663.84;5056571;28;45243;-60
2021/07/04 01:03:06;;;;;;;;;6.25;5.00;;;;;23.90;49.83;100664.94;5056136;28;45340;-60
2021/07/04 01:05:34;;;;;;;;;5.25;5.25;;;;;23.93;49.35;100664.72;5056226;28;45854;-60
2021/07/04 01:08:02;;;;;;;;;6.75;6.75;;;;;23.90;49.34;100660.50;5056363;28;45402;-60
2021/07/04 01:10:29;;;;;;;;;7.00;5.00;;;;;23.93;49.46;100654.13;5056562;28;45515;-60
2021/07/04 01:12:56;;;;;;;;;6.00;6.00;;;;;23.93;49.65;100654.13;5056182;28;45430;-59
2021/07/04 01:15:25;;;;;;;;;5.00;5.00;;;;;23.93;49.88;100654.97;5056086;28;45479;-60
2021/07/04 01:17:54;;;;;;;;;6.00;6.00;;;;;23.93;49.90;100656.78;5056175;28;45421;-59
2021/07/04 01:20:21;;;;;;;;;5.00;5.00;;;;;23.92;49.79;100655.09;5056678;28;45245;-60
2021/07/04 01:22:56;;;;;;;;;5.75;4.25;;;;;23.93;49.76;100654.13;5056220;28;45622;-60
2021/07/04 01:25:22;;;;;;;;;8.00;8.00;;;;;23.91;49.96;100653.38;5056032;28;45661;-60
2021/07/04 01:27:47;;;;;;;;;4.50;4.50;;;;;23.91;49.92;100648.09;5056518;28;45357;-59
2021/07/04 01:30:13;;;;;;;;;6.00;4.25;;;;;23.93;49.90;100654.13;5054970;28;45553;-60
2021/07/04 01:32:39;;;;;;;;;6.00;6.00;;;;;23.92;49.83;100647.13;5054634;28;48642;-59
2021/07/04 01:35:05;;;;;;;;;5.75;5.00;;;;;23.92;50.04;100657.72;5055902;28;45398;-60
2021/07/04 01:37:30;;;;;;;;;5.00;5.00;;;;;23.92;49.87;100660.38;5056001;28;45339;-60
2021/07/04 01:39:56;;;;;;;;;5.25;5.25;;;;;23.91;50.14;100653.38;5055899;28;45623;-60
2021/07/04 01:42:21;;;;;;;;;4.00;4.00;;;;;23.90;49.63;100649.91;5055788;28;46303;-59
2021/07/04 01:44:46;;;;;;;;;5.50;5.50;;;;;23.91;49.77;100650.75;5056161;28;45309;-60
2021/07/04 01:47:12;;;;;;;;;7.75;6.00;;;;;23.91;50.10;100653.38;5055974;28;45241;-59
2021/07/04 01:49:37;;;;;;;;;5.00;5.00;;;;;23.90;49.83;100649.03;5055912;28;45615;-59
2021/07/04 01:52:03;;;;;;;;;6.00;5.00;;;;;23.90;49.89;100646.41;5055639;28;46028;-59
2021/07/04 01:54:29;;;;;;;;;5.50;4.50;;;;;23.89;49.88;100648.22;5055772;28;45311;-60
2021/07/04 01:56:54;;;;;;;;;5.50;5.50;;;;;23.87;50.17;100641.31;5056213;28;45365;-60
2021/07/04 01:59:19;;;;;;;;;8.75;8.75;;;;;23.90;50.04;100644.63;5059733;28;45383;-60
2021/07/04 02:01:45;;;;;;;;;6.50;6.50;;;;;23.89;49.81;100647.34;5058996;28;46284;-60
2021/07/04 02:04:10;;;;;;;;;5.25;5.00;;;;;23.82;50.19;100630.25;5059052;28;45157;-60
2021/07/04 02:06:35;;;;;;;;;5.50;5.50;;;;;23.89;49.99;100642.06;5059156;28;45316;-59
2021/07/04 02:09:01;;;;;;;;;4.25;4.25;;;;;23.86;50.09;100637.84;5059214;28;45244;-59
2021/07/04 02:11:26;;;;;;;;;6.25;6.25;;;;;23.88;49.82;100640.38;5058946;28;45254;-59
2021/07/04 02:13:52;;;;;;;;;5.00;5.00;;;;;23.88;50.27;100637.72;5059067;28;45418;-59
2021/07/04 02:16:17;;;;;;;;;4.25;4.00;;;;;23.89;49.79;100642.06;5059223;28;45384;-59
2021/07/04 02:18:43;;;;;;;;;6.00;6.00;;;;;23.87;50.13;100622.78;5059139;28;45338;-59
2021/07/04 02:21:09;;;;;;;;;7.00;7.00;;;;;23.88;50.20;100641.22;5058760;28;45796;-59
2021/07/04 02:23:35;;;;;;;;;6.00;6.00;;;;;23.89;50.08;100639.41;5058866;28;45385;-59
2021/07/04 02:26:01;;;;;;;;;5.00;5.00;;;;;23.86;50.10;100637.84;5058884;28;45394;-59
2021/07/04 02:28:28;;;;;;;;;6.00;5.25;;;;;23.87;49.88;100633.38;5058861;28;45566;-59
2021/07/04 02:30:56;;;;;;;;;5.00;5.00;;;;;23.87;50.46;100633.38;5058456;28;46186;-59
2021/07/04 02:33:22;;;;;;;;;4.75;4.75;;;;;23.88;50.22;100625.34;5058877;28;45271;-59
2021/07/04 02:35:53;;;;;;;;;6.75;5.00;;;;;23.89;50.25;100634.13;5058768;28;45323;-59
2021/07/04 02:38:20;;;;;;;;;4.00;4.00;;;;;23.88;50.05;100620.06;5058936;28;45185;-59
2021/07/04 02:40:47;;;;;;;;;7.25;6.25;;;;;23.87;50.54;100620.16;5058438;28;46379;-59
2021/07/04 02:43:15;;;;;;;;;4.75;4.75;;;;;23.88;50.01;100630.63;5058561;28;45347;-59
2021/07/04 02:45:42;;;;;;;;;6.50;5.25;;;;;23.88;50.15;100630.63;5057301;28;45431;-59
2021/07/04 02:48:09;;;;;;;;;5.50;5.00;;;;;23.87;50.29;100633.38;5058183;28;45216;-59
2021/07/04 02:50:35;;;;;;;;;6.00;6.00;;;;;23.88;49.84;100635.06;5058277;28;46187;-59
2021/07/04 02:53:00;;;;;;;;;6.50;6.50;;;;;23.86;49.95;100634.38;5058393;28;45233;-60
2021/07/04 02:55:26;;;;;;;;;6.50;5.50;;;;;23.85;50.13;100636.16;5058390;28;45663;-60
2021/07/04 02:57:52;;;;;;;;;4.75;4.75;;;;;23.86;50.28;100624.59;5058905;28;45464;-59
2021/07/04 03:00:20;;;;;;;;;4.50;4.50;;;;;23.87;50.17;100622.78;5058060;28;46272;-59
2021/07/04 03:02:46;;;;;;;;;6.00;6.00;;;;;23.88;50.45;100627.13;5058224;28;45447;-59
2021/07/04 03:05:12;;;;;;;;;5.25;5.00;;;;;23.86;50.37;100621.13;5058272;28;45407;-59
2021/07/04 03:07:38;;;;;;;;;6.50;6.00;;;;;23.85;50.16;100630.84;5058443;28;45351;-59
2021/07/04 03:10:06;;;;;;;;;5.50;5.50;;;;;23.86;50.45;100626.44;5057313;28;46142;-59
2021/07/04 03:12:31;;;;;;;;;4.75;4.75;;;;;23.84;50.62;100620.41;5057956;28;45324;-59
2021/07/04 03:14:57;;;;;;;;;4.00;3.50;;;;;23.85;50.40;100617.63;5058058;28;45460;-59
2021/07/04 03:17:22;;;;;;;;;6.00;6.00;;;;;23.83;50.13;100614.25;5058537;28;45341;-59
2021/07/04 03:19:48;;;;;;;;;3.75;2.00;;;;;23.85;50.50;100614.97;5057621;28;45402;-59
2021/07/04 03:22:13;;;;;;;;;7.50;7.00;;;;;23.84;50.70;100600.06;5057844;28;45261;-59
2021/07/04 03:24:40;;;;;;;;;5.25;5.25;;;;;23.86;50.32;100599.97;5057884;28;45382;-59
2021/07/04 03:27:07;;;;;;;;;5.00;5.00;;;;;23.83;50.28;100590.41;5058018;28;45401;-59
2021/07/04 03:29:32;;;;;;;;;5.75;4.75;;;;;23.85;50.22;100598.28;5057676;28;45485;-59
2021/07/04 03:31:57;;;;;;;;;4.00;4.00;;;;;23.86;50.33;100589.38;5057599;28;45264;-59
2021/07/04 03:34:23;;;;;;;;;5.25;5.25;;;;;23.85;50.56;100588.50;5058076;28;45260;-60
2021/07/04 03:36:48;;;;;;;;;5.25;5.00;;;;;23.85;50.50;100592.97;5057938;28;45504;-59
2021/07/04 03:39:14;;;;;;;;;4.25;4.25;;;;;23.84;50.63;100594.75;5057240;28;45321;-59
2021/07/04 03:41:39;;;;;;;;;5.25;5.25;;;;;23.86;50.37;100605.25;5057522;28;45364;-59
2021/07/04 03:44:04;;;;;;;;;8.50;5.50;;;;;23.86;50.78;100615.84;5057638;28;45391;-60
2021/07/04 03:46:30;;;;;;;;;5.00;5.00;;;;;23.85;50.38;100619.44;5057757;28;45342;-59
2021/07/04 03:48:55;;;;;;;;;5.25;5.25;;;;;23.84;50.30;100623.03;5057588;28;48698;-59
2021/07/04 03:51:21;;;;;;;;;5.00;5.00;;;;;23.84;50.42;100630.97;5057413;28;45228;-59
2021/07/04 03:53:47;;;;;;;;;5.00;5.00;;;;;23.83;51.06;100626.63;5057642;28;45403;-59
2021/07/04 03:56:13;;;;;;;;;8.75;6.50;;;;;23.83;50.65;100616.88;5057720;28;45569;-59
2021/07/04 03:58:38;;;;;;;;;6.75;5.25;;;;;23.80;51.05;100614.50;5057239;28;45310;-59
2021/07/04 04:01:04;;;;;;;;;5.50;4.50;;;;;23.82;50.85;100611.72;5057240;28;45552;-58
2021/07/04 04:03:29;;;;;;;;;5.50;4.50;;;;;23.82;50.91;100614.38;5057268;28;45374;-59
2021/07/04 04:05:56;;;;;;;;;4.00;4.00;;;;;23.82;51.13;100611.72;5057756;28;45303;-59
2021/07/04 04:08:23;;;;;;;;;5.00;5.00;;;;;23.81;50.88;100616.19;5057103;28;47218;-59
2021/07/04 04:10:48;;;;;;;;;5.25;5.00;;;;;23.81;51.14;100604.72;5057161;28;45229;-59
2021/07/04 04:13:13;;;;;;;;;5.75;5.75;;;;;23.80;50.98;100609.19;5057224;28;45224;-59
2021/07/04 04:15:39;;;;;;;;;8.00;5.00;;;;;23.80;51.12;100606.56;5057287;28;45735;-59
2021/07/04 04:18:05;;;;;;;;;4.25;4.25;;;;;23.80;51.03;100608.34;5056836;28;45964;-59
2021/07/04 04:20:31;;;;;;;;;4.00;4.00;;;;;23.80;51.08;100616.28;5055908;28;45383;-59
2021/07/04 04:22:56;;;;;;;;;5.50;5.50;;;;;23.80;51.16;100616.28;5057415;28;45436;-59
2021/07/04 04:25:22;;;;;;;;;3.00;3.00;;;;;23.78;51.03;100613.75;5057123;28;45485;-59
2021/07/04 04:27:47;;;;;;;;;5.00;5.00;;;;;23.80;51.22;100610.97;5056627;28;46994;-59
2021/07/04 04:30:14;;;;;;;;;7.00;5.00;;;;;23.77;51.23;100607.59;5055388;28;45714;-59
2021/07/04 04:32:39;;;;;;;;;3.25;3.25;;;;;23.80;51.00;100616.28;5056923;28;45346;-59
2021/07/04 04:35:06;;;;;;;;;4.75;4.75;;;;;23.77;51.39;100612.88;5057017;28;45597;-62
2021/07/04 04:37:31;;;;;;;;;5.25;5.25;;;;;23.78;51.20;100598.69;5056551;28;46198;-60
2021/07/04 04:39:57;;;;;;;;;3.75;3.75;;;;;23.78;51.24;100593.41;5056680;28;45294;-59
2021/07/04 04:42:22;;;;;;;;;5.00;4.00;;;;;23.79;51.41;100591.63;5056730;28;45271;-59
2021/07/04 04:44:47;;;;;;;;;4.00;4.00;;;;;23.80;51.75;100584.50;5056768;28;45538;-59
2021/07/04 04:47:13;;;;;;;;;4.50;3.75;;;;;23.80;51.36;100584.50;5056525;28;46399;-59
2021/07/04 04:49:38;;;;;;;;;5.25;5.25;;;;;23.77;51.45;100586.41;5056510;28;45387;-59
2021/07/04 04:52:05;;;;;;;;;5.00;3.00;;;;;23.80;51.41;100605.69;5056611;28;45356;-59
2021/07/04 04:54:30;;;;;;;;;3.00;3.00;;;;;23.78;51.27;100601.34;5056751;28;45208;-59
2021/07/04 04:56:56;;;;;;;;;5.25;4.00;;;;;23.80;51.34;100595.09;5056567;28;45385;-59
2021/07/04 04:59:21;;;;;;;;;5.75;4.50;;;;;23.78;51.49;100596.06;5056046;28;45271;-59
2021/07/04 05:01:47;;;;;;;;;5.75;4.50;;;;;23.77;51.16;100593.53;5055201;28;45420;-59
2021/07/04 05:04:12;;;;;;;;;4.00;4.00;;;;;23.78;51.14;100604.00;5056536;28;45407;-59
2021/07/04 05:06:37;;;;;;;;;5.75;5.00;;;;;23.77;51.17;100590.88;5054873;28;46879;-59
2021/07/04 05:09:04;;;;;;;;;4.00;4.00;;;;;23.78;51.32;100600.53;5056269;28;45410;-59
2021/07/04 05:11:29;;;;;;;;;5.00;5.00;;;;;23.78;51.10;100589.94;5056702;28;45332;-59
2021/07/04 05:13:55;;;;;;;;;3.00;3.00;;;;;23.80;51.41;100589.81;5056374;28;45371;-59
2021/07/04 05:16:20;;;;;;;;;3.50;3.50;;;;;23.77;51.33;100591.72;5056039;28;45985;-59
2021/07/04 05:18:45;;;;;;;;;4.00;4.00;;;;;23.80;51.42;100600.41;5055919;28;45369;-59
2021/07/04 05:21:11;;;;;;;;;4.00;4.00;;;;;23.78;51.26;100601.34;5056291;28;45295;-59
2021/07/04 05:23:36;;;;;;;;;5.50;4.25;;;;;23.79;51.61;100604.84;5056506;28;45336;-59
2021/07/04 05:26:02;;;;;;;;;2.25;2.25;;;;;23.80;51.49;100606.56;5054691;28;46954;-59
2021/07/04 05:28:28;;;;;;;;;3.75;3.25;;;;;23.79;51.16;100610.16;5056230;28;45409;-60
2021/07/04 05:30:55;;;;;;;;;4.75;4.25;;;;;23.80;51.26;100605.69;5056152;28;45405;-60
2021/07/04 05:33:21;;;;;;;;;4.00;4.00;;;;;23.80;51.47;100606.56;5058866;28;45561;-59
2021/07/04 05:35:47;;;;;;;;;6.50;5.00;;;;;23.78;51.29;100603.16;5059395;28;47185;-59
2021/07/04 05:38:20;;;;;;;;;3.50;3.50;;;;;23.79;51.44;100610.16;5059212;28;45385;-59
2021/07/04 05:40:47;;;;;;;;;4.75;4.75;;;;;23.80;51.51;100605.69;5059637;28;45339;-59
2021/07/04 05:43:13;;;;;;;;;2.75;2.75;;;;;23.80;51.55;100598.59;5059711;28;45404;-59
2021/07/04 05:45:38;;;;;;;;;4.00;4.00;;;;;23.80;51.30;100595.09;5059315;28;46170;-59
2021/07/04 05:48:05;;;;;;;;;3.00;3.00;;;;;23.81;51.20;100591.50;5058112;28;45422;-59
2021/07/04 05:50:31;;;;;;;;;4.00;4.00;;;;;23.78;51.50;100590.75;5059533;28;45382;-59
2021/07/04 05:52:56;;;;;;;;;5.25;3.50;;;;;23.76;51.36;100584.72;5059428;28;45494;-59
2021/07/04 05:55:22;;;;;;;;;5.25;4.25;;;;;23.81;51.63;100588.84;5058953;28;45380;-59
2021/07/04 05:57:48;;;;;;;;;3.00;3.00;;;;;23.81;51.53;100591.50;5058984;28;45850;-59
2021/07/04 06:00:13;;;;;;;;;5.00;2.75;;;;;23.81;51.57;100588.84;5058961;28;45640;-59
2021/07/04 06:02:39;;;;;;;;;3.00;3.00;;;;;23.80;51.43;100595.97;5059125;28;45464;-59
2021/07/04 06:05:05;;;;;;;;;7.00;4.25;;;;;23.81;51.56;100602.94;5058914;28;45233;-60
2021/07/04 06:07:30;;;;;;;;;4.00;4.00;;;;;23.81;51.70;100596.78;5059265;28;45244;-59
2021/07/04 06:09:55;;;;;;;;;3.75;3.25;;;;;23.81;51.56;100602.09;5059052;28;45292;-59
2021/07/04 06:12:21;;;;;;;;;5.25;4.00;;;;;23.81;51.15;100602.94;5057874;28;45290;-59
2021/07/04 06:14:46;;;;;;;;;4.00;3.00;;;;;23.81;51.38;100595.00;5058864;28;45289;-59
2021/07/04 06:17:11;;;;;;;;;4.00;3.00;;;;;23.82;51.44;100595.84;5058939;28;45304;-59
2021/07/04 06:19:37;;;;;;;;;2.75;2.75;;;;;23.81;51.42;100596.78;5058919;28;45701;-59
2021/07/04 06:22:03;;;;;;;;;4.25;4.25;;;;;23.82;51.49;100598.47;5059405;28;45446;-59
2021/07/04 06:24:28;;;;;;;;;3.00;3.00;;;;;23.82;51.54;100604.59;5057565;28;46031;-59
2021/07/04 06:26:54;;;;;;;;;5.00;4.00;;;;;23.82;51.61;100603.78;5058653;28;47619;-59
2021/07/04 06:29:19;;;;;;;;;4.00;4.00;;;;;23.81;51.29;100602.09;5058895;28;45339;-60
2021/07/04 06:31:44;;;;;;;;;3.00;3.00;;;;;23.83;51.19;100610.75;5059170;28;45282;-59
2021/07/04 06:34:10;;;;;;;;;3.00;3.00;;;;;23.82;51.35;100601.97;5058617;28;45428;-59
2021/07/04 06:36:35;;;;;;;;;5.00;4.00;;;;;23.83;51.30;100602.81;5058554;28;45318;-59
2021/07/04 06:39:00;;;;;;;;;4.00;4.00;;;;;23.84;51.46;100601.88;5058697;28;45397;-58
2021/07/04 06:41:26;;;;;;;;;4.50;4.50;;;;;23.84;51.53;100605.34;5058615;28;45538;-59
2021/07/04 06:43:52;;;;;;;;;3.75;3.75;;;;;23.85;51.45;100595.63;5057204;28;46534;-59
2021/07/04 06:46:18;;;;;;;;;4.25;3.00;;;;;23.86;51.53;100594.66;5058409;28;45343;-59
2021/07/04 06:48:44;;;;;;;;;3.00;3.00;;;;;23.86;51.67;100594.66;5058390;28;45371;-59
2021/07/04 06:51:09;;;;;;;;;2.00;2.00;;;;;23.86;51.25;100598.16;5058652;28;45497;-59
2021/07/04 06:53:35;;;;;;;;;3.25;3.25;;;;;23.86;51.33;100592.03;5058977;28;45275;-59
2021/07/04 06:56:02;;;;;;;;;4.00;3.00;;;;;23.85;51.15;100592.97;5058421;28;46617;-59
2021/07/04 06:58:27;;;;;;;;;3.00;3.00;;;;;23.87;51.60;100585.75;5058256;28;45548;-59
2021/07/04 07:00:52;;;;;;;;;4.00;3.00;;;;;23.86;51.38;100587.56;5058316;28;45484;-58
2021/07/04 07:03:18;;;;;;;;;5.00;3.50;;;;;23.88;51.37;100584.78;5057995;28;45322;-58
2021/07/04 07:05:43;;;;;;;;;3.50;3.50;;;;;23.87;51.49;100591.03;5057850;28;45361;-58
2021/07/04 07:08:09;;;;;;;;;3.00;3.00;;;;;23.89;50.98;100594.41;5058036;28;45335;-58
2021/07/04 07:10:34;;;;;;;;;2.00;2.00;;;;;23.89;51.29;100591.78;5058449;28;45535;-58
2021/07/04 07:13:00;;;;;;;;;3.00;2.50;;;;;23.89;51.06;100583.84;5057920;28;46298;-58
2021/07/04 07:15:25;;;;;;;;;4.00;4.00;;;;;23.90;51.38;100586.38;5056494;28;45761;-58
2021/07/04 07:17:51;;;;;;;;;4.50;4.50;;;;;23.91;51.25;100592.50;5058014;28;45368;-58
2021/07/04 07:20:17;;;;;;;;;3.50;3.50;;;;;23.91;50.95;100598.66;5057967;28;45276;-58
2021/07/04 07:22:42;;;;;;;;;3.25;3.25;;;;;23.91;51.51;100600.44;5057648;28;45989;-58
2021/07/04 07:25:08;;;;;;;;;3.25;3.25;;;;;23.91;51.28;100588.06;5057734;28;45340;-58
2021/07/04 07:27:34;;;;;;;;;3.00;3.00;;;;;23.91;51.29;100595.16;5058306;28;45295;-58
2021/07/04 07:29:59;;;;;;;;;2.75;2.75;;;;;23.89;51.09;100594.41;5058023;28;45213;-58
2021/07/04 07:32:27;;;;;;;;;3.00;3.00;;;;;23.93;51.56;100599.38;5057617;28;45343;-58
2021/07/04 07:34:52;;;;;;;;;4.00;4.00;;;;;23.93;51.14;100602.03;5057527;28;45413;-58
2021/07/04 07:37:19;;;;;;;;;4.25;3.00;;;;;23.94;50.96;100619.59;5057686;28;45479;-61
2021/07/04 07:39:44;;;;;;;;;3.75;3.75;;;;;23.94;51.07;100614.28;5057422;28;45259;-59
2021/07/04 07:42:10;;;;;;;;;3.75;3.75;;;;;23.94;51.04;100616.94;5057347;28;47041;-59
2021/07/04 07:44:35;;;;;;;;;3.25;3.25;;;;;23.96;51.35;100616.03;5057704;28;45302;-59
2021/07/04 07:47:01;;;;;;;;;5.00;3.25;;;;;23.96;51.11;100622.19;5057476;28;45249;-59
2021/07/04 07:49:26;;;;;;;;;4.00;4.00;;;;;23.94;51.12;100621.41;5056310;28;45590;-59
2021/07/04 07:51:52;;;;;;;;;3.50;3.50;;;;;23.93;50.80;100617.06;5055956;28;46176;-59
2021/07/04 07:54:19;;;;;;;;;3.25;3.25;;;;;23.95;51.15;100628.44;5057259;28;45744;-59
2021/07/04 07:56:45;;;;;;;;;4.00;3.75;;;;;23.94;51.02;100629.34;5057291;28;45231;-60
2021/07/04 07:59:11;;;;;;;;;2.00;2.00;;;;;23.93;51.16;100625.00;5057435;28;45573;-59
2021/07/04 08:01:36;;;;;;;;;2.25;2.25;;;;;23.93;51.07;100622.38;5057480;28;46291;-59
2021/07/04 08:04:02;;;;;;;;;3.00;3.00;;;;;23.93;51.42;100625.00;5057330;28;45339;-59
2021/07/04 08:06:27;;;;;;;;;3.50;3.50;;;;;23.92;50.95;100618.84;5057218;28;45335;-59
2021/07/04 08:08:52;;;;;;;;;2.25;2.25;;;;;23.93;51.32;100625.00;5057156;28;45624;-59
2021/07/04 08:11:18;;;;;;;;;3.25;3.00;;;;;23.93;51.09;100625.84;5057021;28;46412;-59
2021/07/04 08:13:43;;;;;;;;;3.50;3.50;;;;;23.94;51.48;100624.06;5057147;28;45363;-59
2021/07/04 08:16:09;;;;;;;;;2.25;2.25;;;;;23.92;51.11;100620.66;5056140;28;45462;-59
2021/07/04 08:18:34;;;;;;;;;5.00;3.25;;;;;23.95;51.40;100601.97;5057556;28;45449;-59
2021/07/04 08:21:00;;;;;;;;;3.00;3.00;;;;;23.94;51.02;100594.94;5056868;28;46525;-59
2021/07/04 08:23:25;;;;;;;;;4.25;4.00;;;;;23.98;51.46;100585.81;5056964;28;45497;-59
2021/07/04 08:25:50;;;;;;;;;3.00;2.50;;;;;23.99;51.17;100576.09;5056584;28;52193;-59
2021/07/04 08:28:17;;;;;;;;;3.00;3.00;;;;;24.00;51.19;100577.78;5057082;28;45637;-59
2021/07/04 08:30:44;;;;;;;;;3.00;3.00;;;;;24.00;51.08;100570.69;5056682;28;47007;-59
2021/07/04 08:33:10;;;;;;;;;3.50;3.50;;;;;24.01;50.80;100563.59;5057103;28;45576;-59
2021/07/04 08:35:36;;;;;;;;;2.00;2.00;;;;;23.99;51.23;100566.34;5057083;28;45245;-59
2021/07/04 08:38:03;;;;;;;;;3.50;3.50;;;;;24.00;51.36;100567.19;5056674;28;45656;-59
2021/07/04 08:40:28;;;;;;;;;2.25;2.00;;;;;24.02;51.04;100571.41;5056579;28;45405;-60
2021/07/04 08:42:53;;;;;;;;;2.50;2.50;;;;;24.02;50.92;100573.22;5056859;28;45438;-59
2021/07/04 08:45:19;;;;;;;;;2.25;2.00;;;;;24.02;50.58;100579.34;5056885;28;45379;-60
2021/07/04 08:47:44;;;;;;;;;2.00;2.00;;;;;24.03;50.67;100589.00;5057011;28;45331;-59
2021/07/04 08:50:12;;;;;;;;;2.25;2.00;;;;;24.03;50.90;100586.34;5056738;28;45331;-60
2021/07/04 08:52:39;;;;;;;;;3.25;3.25;;;;;24.04;51.29;100592.47;5056825;28;45766;-59
2021/07/04 08:55:06;;;;;;;;;1.25;1.25;;;;;24.05;50.36;100588.88;5056659;28;45221;-60
2021/07/04 08:57:31;;;;;;;;;4.25;3.00;;;;;24.06;50.76;100596.72;5056875;28;45875;-59
2021/07/04 08:59:56;;;;;;;;;3.50;3.50;;;;;24.08;50.94;100593.94;5056519;28;45734;-60
2021/07/04 09:02:33;;;;;;;;;2.00;2.00;;;;;24.08;50.95;100592.16;5056405;28;45457;-60
2021/07/04 09:05:06;;;;;;;;;3.75;3.00;;;;;24.09;50.86;100580.56;5056576;28;45526;-60
2021/07/04 09:07:32;;;;;;;;;2.00;2.00;;;;;24.11;50.89;100584.91;5056076;28;45244;-59
2021/07/04 09:10:02;;;;;;;;;2.25;2.25;;;;;24.12;50.75;100583.97;5056259;28;48005;-59
2021/07/04 09:12:42;;;;;;;;;2.25;2.25;;;;;24.12;50.56;100584.81;5056305;28;45170;-60
2021/07/04 09:15:12;;;;;;;;;1.00;1.00;;;;;24.13;50.46;100575.91;5056977;28;45495;-59
2021/07/04 09:17:40;;;;;;;;;3.00;3.00;;;;;24.14;50.54;100584.69;5056921;28;45622;-62
2021/07/04 09:20:10;;;;;;;;;3.75;3.75;;;;;24.14;50.69;100576.75;5055786;28;46326;-59
2021/07/04 09:22:38;;;;;;;;;2.00;2.00;;;;;24.14;50.72;100577.63;5055900;28;45530;-59
2021/07/04 09:25:13;;;;;;;;;2.25;2.25;;;;;24.15;50.81;100567.84;5055942;28;45413;-59
2021/07/04 09:27:42;;;;;;;;;1.75;1.75;;;;;24.16;50.28;100572.19;5056705;28;45228;-60
2021/07/04 09:30:11;;;;;;;;;2.25;2.00;;;;;24.15;50.19;100571.31;5056097;28;45981;-59
2021/07/04 09:32:36;;;;;;;;;2.75;2.75;;;;;24.16;50.56;100565.06;5055852;28;45800;-59
2021/07/04 09:35:12;;;;;;;;;2.00;2.00;;;;;24.17;49.95;100563.28;5055936;28;45541;-59
2021/07/04 09:37:47;;;;;;;;;1.25;1.00;;;;;24.18;50.27;100559.69;5056046;28;45471;-59
2021/07/04 09:40:19;;;;;;;;;1.00;1.00;;;;;24.17;50.17;100550.88;5055926;28;45466;-59
2021/07/04 09:42:58;;;;;;;;;2.00;1.50;;;;;24.18;50.46;100546.44;5055600;28;45850;-60
2021/07/04 09:45:26;;;;;;;;;3.75;2.00;;;;;24.18;50.30;100547.28;5055814;28;45538;-59
2021/07/04 09:47:53;;;;;;;;;2.25;2.25;;;;;24.18;50.27;100547.28;5056118;28;45223;-59
2021/07/04 09:50:18;;;;;;;;;1.50;1.50;;;;;24.18;50.34;100546.44;5055714;28;45403;-59
2021/07/04 09:53:01;;;;;;;;;3.00;2.00;;;;;24.17;50.09;100550.06;5054531;28;45375;-60
2021/07/04 09:55:27;;;;;;;;;3.00;2.00;;;;;24.18;50.09;100549.09;5055798;28;45244;-59
2021/07/04 09:57:58;;;;;;;;;2.50;2.50;;;;;24.15;49.85;100544.84;5055799;28;45341;-59
2021/07/04 10:00:26;;;;;;;;;3.75;2.50;;;;;24.17;49.96;100544.75;5055251;28;45331;-59
2021/07/04 10:03:11;;;;;;;;;2.00;2.00;;;;;24.17;50.18;100544.75;5055549;28;45676;-60
2021/07/04 10:05:42;;;;;;;;;2.00;2.00;;;;;24.16;50.36;100541.25;5055420;28;45287;-59
2021/07/04 10:08:26;;;;;;;;;1.00;1.00;;;;;24.16;49.84;100549.19;5054323;28;45422;-59
2021/07/04 10:10:55;;;;;;;;;3.00;3.00;;;;;24.17;50.01;100544.75;5055209;28;46119;-59
2021/07/04 10:13:20;;;;;;;;;2.00;2.00;;;;;24.18;49.57;100535.84;5055557;28;45236;-59
2021/07/04 10:15:45;;;;;;;;;1.00;1.00;;;;;24.17;50.10;100532.34;5055682;28;45320;-59
2021/07/04 10:18:12;;;;;;;;;2.00;2.00;;;;;24.16;49.76;100532.47;5055991;28;45600;-59
2021/07/04 10:20:39;;;;;;;;;2.00;2.00;;;;;24.17;49.56;100523.56;5058253;28;46209;-59
2021/07/04 10:23:10;;;;;;;;;1.25;1.25;;;;;24.17;50.09;100532.34;5058826;28;45260;-59
2021/07/04 10:25:36;;;;;;;;;3.00;3.00;;;;;24.19;49.61;100533.06;5058910;28;45332;-59
2021/07/04 10:28:03;;;;;;;;;2.00;2.00;;;;;24.19;49.45;100519.00;5058971;28;45544;-59
2021/07/04 10:30:29;;;;;;;;;3.00;2.00;;;;;24.20;49.84;100528.63;5058496;28;47542;-60
2021/07/04 10:33:14;;;;;;;;;3.00;1.25;;;;;24.21;49.57;100530.31;5058630;28;45427;-59
2021/07/04 10:35:58;;;;;;;;;0.50;0.50;;;;;24.22;49.61;100521.41;5057442;28;45374;-59
2021/07/04 10:38:23;;;;;;;;;2.00;2.00;;;;;24.23;49.42;100523.09;5058541;28;45473;-58
2021/07/04 10:40:48;;;;;;;;;3.00;2.00;;;;;24.24;49.22;100519.50;5058302;28;45363;-58
2021/07/04 10:43:49;;;;;;;;;1.00;1.00;;;;;24.25;49.28;100521.19;5058749;28;45289;-58
2021/07/04 10:46:15;;;;;;;;;2.00;2.00;;;;;24.26;49.29;100506.97;5058817;28;45438;-58
2021/07/04 10:48:55;;;;;;;;;2.00;2.00;;;;;24.26;49.28;100504.31;5058773;28;45625;-58
2021/07/04 10:51:22;;;;;;;;;2.00;2.00;;;;;24.28;49.11;100514.78;5058205;28;46176;-58
2021/07/04 10:53:50;;;;;;;;;2.00;2.00;;;;;24.27;49.41;100505.16;5057342;28;45890;-58
2021/07/04 10:56:34;;;;;;;;;1.75;1.75;;;;;24.26;49.60;100512.28;5058754;28;45331;-58
2021/07/04 10:59:04;;;;;;;;;2.00;2.00;;;;;24.25;48.76;100515.88;5057200;28;45469;-57
2021/07/04 11:01:52;;;;;;;;;1.00;1.00;;;;;24.24;49.42;100528.28;5058210;28;46420;-58
2021/07/04 11:04:33;;;;;;;;;3.00;3.00;;;;;24.23;49.04;100517.78;5058461;28;45568;-59
2021/07/04 11:07:03;;;;;;;;;2.00;2.00;;;;;24.23;49.42;100509.84;5058161;28;45406;-59
2021/07/04 11:10:07;;;;;;;;;2.50;2.00;;;;;24.22;49.04;100510.81;5058163;28;45235;-59
2021/07/04 11:12:37;;;;;;;;;1.50;1.50;;;;;24.21;49.09;100503.81;5015915;28;46048;-59
2021/07/04 11:15:11;;;;;;;;;2.00;1.00;;;;;24.22;49.24;100502.88;5015767;28;45457;-59
2021/07/04 11:17:54;;;;;;;;;2.00;2.00;;;;;24.23;48.94;100507.19;5038973;28;45509;-59
2021/07/04 11:20:21;;;;;;;;;1.25;1.25;;;;;24.25;49.07;100500.00;5056969;28;45399;-59
2021/07/04 11:23:00;;;;;;;;;4.50;3.00;;;;;24.24;49.46;100487.72;5057960;28;46181;-59
2021/07/04 11:25:37;;;;;;;;;2.75;2.75;;;;;24.26;49.13;100491.09;5057829;28;45327;-59